sensor_id;sensor_type;location;lat;lon;timestamp;P1;durP1;ratioP1;P2;durP2;ratioP2
71236;SDS011;58984;51.960;5.582;2023-12-14T00:01:57;16.60;;;11.05;;
71236;SDS011;58984;51.960;5.582;2023-12-14T00:04:23;19.50;;;10.43;;
71236;SDS011;58984;51.960;5.582;2023-12-14T00:06:51;18.77;;;11.43;;
71236;SDS011;58984;51.960;5.582;2023-12-14T00:09:19;18.17;;;11.10;;
71236;SDS011;58984;51.960;5.582;2023-12-14T00:12:13;21.08;;;12.40;;
71236;SDS011;58984;51.960;5.582;2023-12-14T00:14:42;21.65;;;11.38;;
71236;SDS011;58984;51.960;5.582;2023-12-14T00:17:19;19.23;;;11.27;;
71236;SDS011;58984;51.960;5.582;2023-12-14T00:19:48;21.38;;;12.32;;
71236;SDS011;58984;51.960;5.582;2023-12-14T00:22:14;21.25;;;11.77;;
71236;SDS011;58984;51.960;5.582;2023-12-14T00:24:39;21.02;;;11.85;;
71236;SDS011;58984;51.960;5.582;2023-12-14T00:27:08;15.63;;;11.55;;
71236;SDS011;58984;51.960;5.582;2023-12-14T00:29:36;19.70;;;11.63;;
71236;SDS011;58984;51.960;5.582;2023-12-14T00:32:11;19.65;;;11.63;;
71236;SDS011;58984;51.960;5.582;2023-12-14T00:34:45;18.70;;;12.02;;
71236;SDS011;58984;51.960;5.582;2023-12-14T00:37:10;20.77;;;11.68;;
71236;SDS011;58984;51.960;5.582;2023-12-14T00:39:36;22.10;;;12.52;;
71236;SDS011;58984;51.960;5.582;2023-12-14T00:42:02;21.27;;;11.63;;
71236;SDS011;58984;51.960;5.582;2023-12-14T00:44:28;20.08;;;12.07;;
71236;SDS011;58984;51.960;5.582;2023-12-14T00:46:54;19.25;;;12.05;;
71236;SDS011;58984;51.960;5.582;2023-12-14T00:49:20;18.35;;;12.55;;
71236;SDS011;58984;51.960;5.582;2023-12-14T00:51:48;19.85;;;12.25;;
71236;SDS011;58984;51.960;5.582;2023-12-14T00:54:20;19.70;;;12.15;;
71236;SDS011;58984;51.960;5.582;2023-12-14T00:56:47;18.80;;;12.10;;
71236;SDS011;58984;51.960;5.582;2023-12-14T00:59:13;21.73;;;12.05;;
71236;SDS011;58984;51.960;5.582;2023-12-14T01:01:39;19.48;;;12.00;;
71236;SDS011;58984;51.960;5.582;2023-12-14T01:04:05;19.15;;;12.25;;
71236;SDS011;58984;51.960;5.582;2023-12-14T01:06:33;18.10;;;10.85;;
71236;SDS011;58984;51.960;5.582;2023-12-14T01:09:03;16.70;;;11.73;;
71236;SDS011;58984;51.960;5.582;2023-12-14T01:11:29;22.02;;;11.57;;
71236;SDS011;58984;51.960;5.582;2023-12-14T01:13:58;18.48;;;10.90;;
71236;SDS011;58984;51.960;5.582;2023-12-14T01:16:25;16.52;;;10.93;;
71236;SDS011;58984;51.960;5.582;2023-12-14T01:18:54;19.20;;;11.23;;
71236;SDS011;58984;51.960;5.582;2023-12-14T01:21:20;19.40;;;10.93;;
71236;SDS011;58984;51.960;5.582;2023-12-14T01:23:49;20.60;;;11.57;;
71236;SDS011;58984;51.960;5.582;2023-12-14T01:26:20;16.75;;;10.85;;
71236;SDS011;58984;51.960;5.582;2023-12-14T01:28:48;19.63;;;12.35;;
71236;SDS011;58984;51.960;5.582;2023-12-14T01:31:37;21.10;;;11.90;;
71236;SDS011;58984;51.960;5.582;2023-12-14T01:34:09;19.30;;;12.48;;
71236;SDS011;58984;51.960;5.582;2023-12-14T01:36:37;22.88;;;12.68;;
71236;SDS011;58984;51.960;5.582;2023-12-14T01:39:15;20.45;;;11.95;;
71236;SDS011;58984;51.960;5.582;2023-12-14T01:44:49;23.13;;;12.23;;
71236;SDS011;58984;51.960;5.582;2023-12-14T01:47:14;21.02;;;12.35;;
71236;SDS011;58984;51.960;5.582;2023-12-14T01:49:53;18.33;;;12.30;;
71236;SDS011;58984;51.960;5.582;2023-12-14T01:52:36;19.15;;;12.57;;
71236;SDS011;58984;51.960;5.582;2023-12-14T01:55:05;20.33;;;11.85;;
71236;SDS011;58984;51.960;5.582;2023-12-14T01:57:34;20.02;;;12.07;;
71236;SDS011;58984;51.960;5.582;2023-12-14T01:59:59;22.10;;;12.38;;
71236;SDS011;58984;51.960;5.582;2023-12-14T02:02:31;18.33;;;11.95;;
71236;SDS011;58984;51.960;5.582;2023-12-14T02:05:02;18.42;;;12.05;;
71236;SDS011;58984;51.960;5.582;2023-12-14T02:07:34;17.75;;;11.75;;
71236;SDS011;58984;51.960;5.582;2023-12-14T02:10:17;14.93;;;11.13;;
71236;SDS011;58984;51.960;5.582;2023-12-14T02:12:46;17.13;;;11.10;;
71236;SDS011;58984;51.960;5.582;2023-12-14T02:15:12;20.65;;;12.00;;
71236;SDS011;58984;51.960;5.582;2023-12-14T02:17:40;18.52;;;10.68;;
71236;SDS011;58984;51.960;5.582;2023-12-14T02:20:06;19.92;;;11.25;;
71236;SDS011;58984;51.960;5.582;2023-12-14T02:22:36;19.17;;;12.15;;
71236;SDS011;58984;51.960;5.582;2023-12-14T02:25:15;15.95;;;10.82;;
71236;SDS011;58984;51.960;5.582;2023-12-14T02:27:41;17.63;;;10.95;;
71236;SDS011;58984;51.960;5.582;2023-12-14T02:30:09;18.20;;;10.85;;
71236;SDS011;58984;51.960;5.582;2023-12-14T02:32:38;19.75;;;11.55;;
71236;SDS011;58984;51.960;5.582;2023-12-14T02:35:05;17.60;;;11.05;;
71236;SDS011;58984;51.960;5.582;2023-12-14T02:37:34;20.27;;;11.55;;
71236;SDS011;58984;51.960;5.582;2023-12-14T02:40:05;15.90;;;10.07;;
71236;SDS011;58984;51.960;5.582;2023-12-14T02:42:34;17.50;;;10.43;;
71236;SDS011;58984;51.960;5.582;2023-12-14T02:45:03;17.48;;;11.35;;
71236;SDS011;58984;51.960;5.582;2023-12-14T02:47:29;17.58;;;10.38;;
71236;SDS011;58984;51.960;5.582;2023-12-14T02:49:59;19.42;;;11.30;;
71236;SDS011;58984;51.960;5.582;2023-12-14T02:52:25;15.93;;;10.38;;
71236;SDS011;58984;51.960;5.582;2023-12-14T02:54:51;19.35;;;11.38;;
71236;SDS011;58984;51.960;5.582;2023-12-14T02:57:17;19.13;;;11.15;;
71236;SDS011;58984;51.960;5.582;2023-12-14T02:59:43;20.88;;;11.75;;
71236;SDS011;58984;51.960;5.582;2023-12-14T03:02:08;15.73;;;10.93;;
71236;SDS011;58984;51.960;5.582;2023-12-14T03:04:34;18.83;;;10.98;;
71236;SDS011;58984;51.960;5.582;2023-12-14T03:07:02;16.08;;;10.95;;
71236;SDS011;58984;51.960;5.582;2023-12-14T03:09:28;18.38;;;11.13;;
71236;SDS011;58984;51.960;5.582;2023-12-14T03:11:54;18.77;;;11.30;;
71236;SDS011;58984;51.960;5.582;2023-12-14T03:14:23;17.63;;;11.63;;
71236;SDS011;58984;51.960;5.582;2023-12-14T03:16:56;16.25;;;11.07;;
71236;SDS011;58984;51.960;5.582;2023-12-14T03:19:22;16.85;;;11.00;;
71236;SDS011;58984;51.960;5.582;2023-12-14T03:21:53;20.92;;;11.50;;
71236;SDS011;58984;51.960;5.582;2023-12-14T03:24:21;25.90;;;11.88;;
71236;SDS011;58984;51.960;5.582;2023-12-14T03:26:49;15.25;;;11.27;;
71236;SDS011;58984;51.960;5.582;2023-12-14T03:29:21;17.67;;;11.63;;
71236;SDS011;58984;51.960;5.582;2023-12-14T03:31:47;18.48;;;12.15;;
71236;SDS011;58984;51.960;5.582;2023-12-14T03:34:13;18.50;;;12.00;;
71236;SDS011;58984;51.960;5.582;2023-12-14T03:36:42;18.63;;;12.35;;
71236;SDS011;58984;51.960;5.582;2023-12-14T03:39:08;16.33;;;10.88;;
71236;SDS011;58984;51.960;5.582;2023-12-14T03:41:33;19.30;;;11.52;;
71236;SDS011;58984;51.960;5.582;2023-12-14T03:44:07;16.88;;;11.95;;
71236;SDS011;58984;51.960;5.582;2023-12-14T03:46:32;17.90;;;11.75;;
71236;SDS011;58984;51.960;5.582;2023-12-14T03:48:59;19.38;;;11.85;;
71236;SDS011;58984;51.960;5.582;2023-12-14T03:51:25;19.67;;;11.77;;
71236;SDS011;58984;51.960;5.582;2023-12-14T03:53:53;19.27;;;10.57;;
71236;SDS011;58984;51.960;5.582;2023-12-14T03:56:21;15.18;;;10.90;;
71236;SDS011;58984;51.960;5.582;2023-12-14T03:58:50;17.10;;;11.55;;
71236;SDS011;58984;51.960;5.582;2023-12-14T04:01:16;18.92;;;12.57;;
71236;SDS011;58984;51.960;5.582;2023-12-14T04:03:48;17.80;;;12.20;;
71236;SDS011;58984;51.960;5.582;2023-12-14T04:06:20;18.77;;;11.20;;
71236;SDS011;58984;51.960;5.582;2023-12-14T04:09:00;16.90;;;11.98;;
71236;SDS011;58984;51.960;5.582;2023-12-14T04:11:35;16.10;;;10.93;;
71236;SDS011;58984;51.960;5.582;2023-12-14T04:14:14;17.85;;;11.65;;
71236;SDS011;58984;51.960;5.582;2023-12-14T04:16:47;16.08;;;11.02;;
71236;SDS011;58984;51.960;5.582;2023-12-14T04:19:13;22.55;;;12.43;;
71236;SDS011;58984;51.960;5.582;2023-12-14T04:21:44;16.42;;;11.15;;
71236;SDS011;58984;51.960;5.582;2023-12-14T04:24:10;17.00;;;11.05;;
71236;SDS011;58984;51.960;5.582;2023-12-14T04:26:47;15.43;;;10.15;;
71236;SDS011;58984;51.960;5.582;2023-12-14T04:29:15;19.65;;;11.65;;
71236;SDS011;58984;51.960;5.582;2023-12-14T04:31:41;15.27;;;10.55;;
71236;SDS011;58984;51.960;5.582;2023-12-14T04:34:06;18.00;;;11.40;;
71236;SDS011;58984;51.960;5.582;2023-12-14T04:36:37;16.15;;;10.55;;
71236;SDS011;58984;51.960;5.582;2023-12-14T04:39:02;15.63;;;11.30;;
71236;SDS011;58984;51.960;5.582;2023-12-14T04:41:30;16.83;;;10.05;;
71236;SDS011;58984;51.960;5.582;2023-12-14T04:43:56;15.88;;;11.30;;
71236;SDS011;58984;51.960;5.582;2023-12-14T04:46:24;16.50;;;10.20;;
71236;SDS011;58984;51.960;5.582;2023-12-14T04:48:49;19.15;;;10.82;;
71236;SDS011;58984;51.960;5.582;2023-12-14T04:51:15;17.55;;;10.90;;
71236;SDS011;58984;51.960;5.582;2023-12-14T04:53:45;17.38;;;10.18;;
71236;SDS011;58984;51.960;5.582;2023-12-14T04:56:11;16.48;;;9.88;;
71236;SDS011;58984;51.960;5.582;2023-12-14T04:58:41;16.50;;;10.90;;
71236;SDS011;58984;51.960;5.582;2023-12-14T05:01:07;17.55;;;9.85;;
71236;SDS011;58984;51.960;5.582;2023-12-14T05:03:34;15.73;;;10.13;;
71236;SDS011;58984;51.960;5.582;2023-12-14T05:06:00;15.13;;;10.60;;
71236;SDS011;58984;51.960;5.582;2023-12-14T05:08:26;16.05;;;10.00;;
71236;SDS011;58984;51.960;5.582;2023-12-14T05:10:52;15.82;;;10.13;;
71236;SDS011;58984;51.960;5.582;2023-12-14T05:13:18;20.05;;;11.35;;
71236;SDS011;58984;51.960;5.582;2023-12-14T05:15:46;16.17;;;11.07;;
71236;SDS011;58984;51.960;5.582;2023-12-14T05:18:17;17.90;;;10.25;;
71236;SDS011;58984;51.960;5.582;2023-12-14T05:20:45;15.82;;;10.32;;
71236;SDS011;58984;51.960;5.582;2023-12-14T05:23:11;22.98;;;10.82;;
71236;SDS011;58984;51.960;5.582;2023-12-14T05:25:38;13.85;;;10.18;;
71236;SDS011;58984;51.960;5.582;2023-12-14T05:28:03;17.42;;;11.43;;
71236;SDS011;58984;51.960;5.582;2023-12-14T05:30:29;16.83;;;10.85;;
71236;SDS011;58984;51.960;5.582;2023-12-14T05:32:55;16.80;;;10.38;;
71236;SDS011;58984;51.960;5.582;2023-12-14T05:35:21;16.52;;;10.65;;
71236;SDS011;58984;51.960;5.582;2023-12-14T05:37:47;16.20;;;10.65;;
71236;SDS011;58984;51.960;5.582;2023-12-14T05:40:13;16.45;;;9.93;;
71236;SDS011;58984;51.960;5.582;2023-12-14T05:42:41;19.00;;;11.65;;
71236;SDS011;58984;51.960;5.582;2023-12-14T05:45:07;19.38;;;11.13;;
71236;SDS011;58984;51.960;5.582;2023-12-14T05:47:33;13.82;;;9.82;;
71236;SDS011;58984;51.960;5.582;2023-12-14T05:50:03;16.05;;;10.65;;
71236;SDS011;58984;51.960;5.582;2023-12-14T05:52:29;15.13;;;9.40;;
71236;SDS011;58984;51.960;5.582;2023-12-14T05:54:55;16.45;;;10.73;;
71236;SDS011;58984;51.960;5.582;2023-12-14T05:57:21;16.40;;;9.60;;
71236;SDS011;58984;51.960;5.582;2023-12-14T05:59:50;23.88;;;11.05;;
71236;SDS011;58984;51.960;5.582;2023-12-14T06:02:16;20.10;;;10.95;;
71236;SDS011;58984;51.960;5.582;2023-12-14T06:04:41;15.65;;;10.10;;
71236;SDS011;58984;51.960;5.582;2023-12-14T06:07:07;16.45;;;10.32;;
71236;SDS011;58984;51.960;5.582;2023-12-14T06:09:34;18.80;;;10.52;;
71236;SDS011;58984;51.960;5.582;2023-12-14T06:12:03;15.77;;;10.48;;
71236;SDS011;58984;51.960;5.582;2023-12-14T06:14:32;15.27;;;10.00;;
71236;SDS011;58984;51.960;5.582;2023-12-14T06:16:58;16.52;;;10.20;;
71236;SDS011;58984;51.960;5.582;2023-12-14T06:19:23;15.32;;;9.70;;
71236;SDS011;58984;51.960;5.582;2023-12-14T06:21:49;16.08;;;9.45;;
71236;SDS011;58984;51.960;5.582;2023-12-14T06:24:15;20.30;;;10.70;;
71236;SDS011;58984;51.960;5.582;2023-12-14T06:26:41;17.17;;;10.00;;
71236;SDS011;58984;51.960;5.582;2023-12-14T06:29:10;14.88;;;9.65;;
71236;SDS011;58984;51.960;5.582;2023-12-14T06:31:40;17.65;;;9.98;;
71236;SDS011;58984;51.960;5.582;2023-12-14T06:34:06;16.70;;;9.85;;
71236;SDS011;58984;51.960;5.582;2023-12-14T06:36:32;19.65;;;10.05;;
71236;SDS011;58984;51.960;5.582;2023-12-14T06:38:58;14.80;;;8.88;;
71236;SDS011;58984;51.960;5.582;2023-12-14T06:41:24;13.00;;;9.48;;
71236;SDS011;58984;51.960;5.582;2023-12-14T06:43:51;17.17;;;10.00;;
71236;SDS011;58984;51.960;5.582;2023-12-14T06:46:17;16.63;;;8.85;;
71236;SDS011;58984;51.960;5.582;2023-12-14T06:48:44;14.77;;;10.10;;
71236;SDS011;58984;51.960;5.582;2023-12-14T06:51:10;12.45;;;9.15;;
71236;SDS011;58984;51.960;5.582;2023-12-14T06:53:36;18.23;;;10.25;;
71236;SDS011;58984;51.960;5.582;2023-12-14T06:56:04;13.27;;;9.93;;
71236;SDS011;58984;51.960;5.582;2023-12-14T06:58:31;14.10;;;9.63;;
71236;SDS011;58984;51.960;5.582;2023-12-14T07:01:00;17.15;;;10.43;;
71236;SDS011;58984;51.960;5.582;2023-12-14T07:03:26;15.38;;;10.20;;
71236;SDS011;58984;51.960;5.582;2023-12-14T07:05:56;17.27;;;10.38;;
71236;SDS011;58984;51.960;5.582;2023-12-14T07:08:25;15.73;;;9.02;;
71236;SDS011;58984;51.960;5.582;2023-12-14T07:13:45;18.27;;;10.27;;
71236;SDS011;58984;51.960;5.582;2023-12-14T07:16:13;15.95;;;9.40;;
71236;SDS011;58984;51.960;5.582;2023-12-14T07:18:42;14.70;;;9.27;;
71236;SDS011;58984;51.960;5.582;2023-12-14T07:21:09;14.15;;;9.52;;
71236;SDS011;58984;51.960;5.582;2023-12-14T07:23:47;14.35;;;9.25;;
71236;SDS011;58984;51.960;5.582;2023-12-14T07:26:47;12.18;;;8.70;;
71236;SDS011;58984;51.960;5.582;2023-12-14T07:29:30;15.43;;;9.50;;
71236;SDS011;58984;51.960;5.582;2023-12-14T07:31:56;13.68;;;9.15;;
71236;SDS011;58984;51.960;5.582;2023-12-14T07:34:22;15.80;;;9.07;;
71236;SDS011;58984;51.960;5.582;2023-12-14T07:36:53;14.23;;;8.93;;
71236;SDS011;58984;51.960;5.582;2023-12-14T07:42:42;16.77;;;9.25;;
71236;SDS011;58984;51.960;5.582;2023-12-14T07:49:10;10.43;;;8.45;;
71236;SDS011;58984;51.960;5.582;2023-12-14T07:52:14;15.98;;;8.80;;
71236;SDS011;58984;51.960;5.582;2023-12-14T07:54:39;14.38;;;8.57;;
71236;SDS011;58984;51.960;5.582;2023-12-14T07:57:05;12.40;;;8.05;;
71236;SDS011;58984;51.960;5.582;2023-12-14T07:59:31;10.88;;;8.52;;
71236;SDS011;58984;51.960;5.582;2023-12-14T08:01:56;12.65;;;8.75;;
71236;SDS011;58984;51.960;5.582;2023-12-14T08:04:22;15.02;;;8.80;;
71236;SDS011;58984;51.960;5.582;2023-12-14T08:06:48;13.93;;;8.05;;
71236;SDS011;58984;51.960;5.582;2023-12-14T08:09:14;11.82;;;8.27;;
71236;SDS011;58984;51.960;5.582;2023-12-14T08:11:39;15.05;;;9.30;;
71236;SDS011;58984;51.960;5.582;2023-12-14T08:14:05;13.60;;;8.75;;
71236;SDS011;58984;51.960;5.582;2023-12-14T08:16:31;12.80;;;8.60;;
71236;SDS011;58984;51.960;5.582;2023-12-14T08:18:57;15.35;;;8.82;;
71236;SDS011;58984;51.960;5.582;2023-12-14T08:21:23;14.23;;;8.55;;
71236;SDS011;58984;51.960;5.582;2023-12-14T08:23:49;13.75;;;8.65;;
71236;SDS011;58984;51.960;5.582;2023-12-14T08:26:14;13.25;;;8.30;;
71236;SDS011;58984;51.960;5.582;2023-12-14T08:28:40;14.80;;;8.25;;
71236;SDS011;58984;51.960;5.582;2023-12-14T08:31:06;15.20;;;8.75;;
71236;SDS011;58984;51.960;5.582;2023-12-14T08:33:33;13.48;;;8.55;;
71236;SDS011;58984;51.960;5.582;2023-12-14T08:35:58;13.32;;;8.32;;
71236;SDS011;58984;51.960;5.582;2023-12-14T08:38:24;12.77;;;8.63;;
71236;SDS011;58984;51.960;5.582;2023-12-14T08:40:50;12.40;;;8.07;;
71236;SDS011;58984;51.960;5.582;2023-12-14T08:43:16;13.85;;;9.10;;
71236;SDS011;58984;51.960;5.582;2023-12-14T08:45:42;13.75;;;8.75;;
71236;SDS011;58984;51.960;5.582;2023-12-14T08:48:07;13.82;;;9.07;;
71236;SDS011;58984;51.960;5.582;2023-12-14T08:50:33;14.38;;;9.40;;
71236;SDS011;58984;51.960;5.582;2023-12-14T08:52:59;16.65;;;9.52;;
71236;SDS011;58984;51.960;5.582;2023-12-14T08:55:25;17.27;;;10.02;;
71236;SDS011;58984;51.960;5.582;2023-12-14T08:57:51;16.85;;;10.05;;
71236;SDS011;58984;51.960;5.582;2023-12-14T09:00:17;14.25;;;10.20;;
71236;SDS011;58984;51.960;5.582;2023-12-14T09:02:46;16.10;;;9.55;;
71236;SDS011;58984;51.960;5.582;2023-12-14T09:05:12;17.15;;;9.70;;
71236;SDS011;58984;51.960;5.582;2023-12-14T09:07:39;13.50;;;9.35;;
71236;SDS011;58984;51.960;5.582;2023-12-14T09:10:05;17.02;;;10.00;;
71236;SDS011;58984;51.960;5.582;2023-12-14T09:12:32;16.80;;;9.65;;
71236;SDS011;58984;51.960;5.582;2023-12-14T09:14:58;14.77;;;10.00;;
71236;SDS011;58984;51.960;5.582;2023-12-14T09:17:24;13.55;;;9.65;;
71236;SDS011;58984;51.960;5.582;2023-12-14T09:19:49;13.88;;;9.27;;
71236;SDS011;58984;51.960;5.582;2023-12-14T09:22:15;15.27;;;9.73;;
71236;SDS011;58984;51.960;5.582;2023-12-14T09:24:42;14.40;;;10.00;;
71236;SDS011;58984;51.960;5.582;2023-12-14T09:27:08;14.05;;;9.82;;
71236;SDS011;58984;51.960;5.582;2023-12-14T09:29:34;15.20;;;9.93;;
71236;SDS011;58984;51.960;5.582;2023-12-14T09:31:59;14.77;;;9.13;;
71236;SDS011;58984;51.960;5.582;2023-12-14T09:34:25;13.88;;;9.25;;
71236;SDS011;58984;51.960;5.582;2023-12-14T09:36:50;16.55;;;9.95;;
71236;SDS011;58984;51.960;5.582;2023-12-14T09:39:17;14.75;;;9.15;;
71236;SDS011;58984;51.960;5.582;2023-12-14T09:41:44;14.90;;;8.90;;
71236;SDS011;58984;51.960;5.582;2023-12-14T09:44:11;13.90;;;9.15;;
71236;SDS011;58984;51.960;5.582;2023-12-14T09:46:37;15.88;;;9.95;;
71236;SDS011;58984;51.960;5.582;2023-12-14T09:49:04;16.08;;;10.40;;
71236;SDS011;58984;51.960;5.582;2023-12-14T09:51:30;14.30;;;10.20;;
71236;SDS011;58984;51.960;5.582;2023-12-14T09:53:56;14.23;;;9.90;;
71236;SDS011;58984;51.960;5.582;2023-12-14T09:56:25;18.52;;;9.88;;
71236;SDS011;58984;51.960;5.582;2023-12-14T09:58:51;18.52;;;10.02;;
71236;SDS011;58984;51.960;5.582;2023-12-14T10:01:21;15.30;;;9.75;;
71236;SDS011;58984;51.960;5.582;2023-12-14T10:03:48;17.05;;;9.95;;
71236;SDS011;58984;51.960;5.582;2023-12-14T10:06:13;18.33;;;10.27;;
71236;SDS011;58984;51.960;5.582;2023-12-14T10:08:39;17.77;;;9.85;;
71236;SDS011;58984;51.960;5.582;2023-12-14T10:11:05;15.15;;;10.63;;
71236;SDS011;58984;51.960;5.582;2023-12-14T10:13:40;17.20;;;11.25;;
71236;SDS011;58984;51.960;5.582;2023-12-14T10:16:07;19.48;;;11.98;;
71236;SDS011;58984;51.960;5.582;2023-12-14T10:18:32;19.27;;;12.27;;
71236;SDS011;58984;51.960;5.582;2023-12-14T10:21:01;17.38;;;11.70;;
71236;SDS011;58984;51.960;5.582;2023-12-14T10:23:27;18.80;;;11.10;;
71236;SDS011;58984;51.960;5.582;2023-12-14T10:25:53;16.17;;;11.25;;
71236;SDS011;58984;51.960;5.582;2023-12-14T10:28:19;18.02;;;11.95;;
71236;SDS011;58984;51.960;5.582;2023-12-14T10:30:44;16.83;;;10.90;;
71236;SDS011;58984;51.960;5.582;2023-12-14T10:33:10;17.20;;;10.75;;
71236;SDS011;58984;51.960;5.582;2023-12-14T10:35:36;16.73;;;11.15;;
71236;SDS011;58984;51.960;5.582;2023-12-14T10:38:02;22.02;;;12.65;;
71236;SDS011;58984;51.960;5.582;2023-12-14T10:40:30;15.68;;;10.70;;
71236;SDS011;58984;51.960;5.582;2023-12-14T10:42:59;18.65;;;11.35;;
71236;SDS011;58984;51.960;5.582;2023-12-14T10:45:34;17.13;;;10.57;;
71236;SDS011;58984;51.960;5.582;2023-12-14T10:48:00;19.98;;;11.20;;
71236;SDS011;58984;51.960;5.582;2023-12-14T10:50:29;17.05;;;11.38;;
71236;SDS011;58984;51.960;5.582;2023-12-14T10:52:56;18.05;;;10.07;;
71236;SDS011;58984;51.960;5.582;2023-12-14T10:55:25;17.42;;;10.52;;
71236;SDS011;58984;51.960;5.582;2023-12-14T10:57:59;15.73;;;10.07;;
71236;SDS011;58984;51.960;5.582;2023-12-14T11:00:26;15.85;;;10.38;;
71236;SDS011;58984;51.960;5.582;2023-12-14T11:02:51;15.90;;;10.60;;
71236;SDS011;58984;51.960;5.582;2023-12-14T11:05:18;16.73;;;9.32;;
71236;SDS011;58984;51.960;5.582;2023-12-14T11:08:01;16.42;;;10.73;;
71236;SDS011;58984;51.960;5.582;2023-12-14T11:13:12;16.42;;;10.40;;
71236;SDS011;58984;51.960;5.582;2023-12-14T11:15:47;17.20;;;10.30;;
71236;SDS011;58984;51.960;5.582;2023-12-14T11:23:15;15.27;;;9.25;;
71236;SDS011;58984;51.960;5.582;2023-12-14T11:25:54;16.48;;;9.82;;
71236;SDS011;58984;51.960;5.582;2023-12-14T11:28:24;16.73;;;9.45;;
71236;SDS011;58984;51.960;5.582;2023-12-14T11:30:49;17.00;;;9.88;;
71236;SDS011;58984;51.960;5.582;2023-12-14T11:33:15;16.20;;;10.60;;
71236;SDS011;58984;51.960;5.582;2023-12-14T11:35:41;17.80;;;10.90;;
71236;SDS011;58984;51.960;5.582;2023-12-14T11:38:07;14.18;;;9.35;;
71236;SDS011;58984;51.960;5.582;2023-12-14T11:40:38;16.17;;;9.95;;
71236;SDS011;58984;51.960;5.582;2023-12-14T11:43:05;12.88;;;9.55;;
71236;SDS011;58984;51.960;5.582;2023-12-14T11:45:33;14.18;;;9.68;;
71236;SDS011;58984;51.960;5.582;2023-12-14T11:48:00;15.70;;;9.68;;
71236;SDS011;58984;51.960;5.582;2023-12-14T11:50:29;14.90;;;10.32;;
71236;SDS011;58984;51.960;5.582;2023-12-14T11:52:55;14.85;;;9.63;;
71236;SDS011;58984;51.960;5.582;2023-12-14T11:55:21;14.30;;;9.68;;
71236;SDS011;58984;51.960;5.582;2023-12-14T11:57:47;15.93;;;9.73;;
71236;SDS011;58984;51.960;5.582;2023-12-14T12:00:14;14.05;;;9.25;;
71236;SDS011;58984;51.960;5.582;2023-12-14T12:02:40;24.00;;;10.55;;
71236;SDS011;58984;51.960;5.582;2023-12-14T12:05:06;17.33;;;10.20;;
71236;SDS011;58984;51.960;5.582;2023-12-14T12:07:32;16.13;;;9.98;;
71236;SDS011;58984;51.960;5.582;2023-12-14T12:09:58;18.40;;;10.13;;
71236;SDS011;58984;51.960;5.582;2023-12-14T12:12:24;17.05;;;9.77;;
71236;SDS011;58984;51.960;5.582;2023-12-14T12:14:50;17.73;;;9.82;;
71236;SDS011;58984;51.960;5.582;2023-12-14T12:17:18;15.82;;;9.55;;
71236;SDS011;58984;51.960;5.582;2023-12-14T12:19:46;18.75;;;10.45;;
71236;SDS011;58984;51.960;5.582;2023-12-14T12:22:12;17.83;;;10.15;;
71236;SDS011;58984;51.960;5.582;2023-12-14T12:24:37;16.38;;;10.15;;
71236;SDS011;58984;51.960;5.582;2023-12-14T12:27:03;15.20;;;9.02;;
71236;SDS011;58984;51.960;5.582;2023-12-14T12:29:29;14.93;;;9.43;;
71236;SDS011;58984;51.960;5.582;2023-12-14T12:31:55;11.15;;;8.40;;
71236;SDS011;58984;51.960;5.582;2023-12-14T12:34:21;16.77;;;9.25;;
71236;SDS011;58984;51.960;5.582;2023-12-14T12:36:47;16.38;;;9.68;;
71236;SDS011;58984;51.960;5.582;2023-12-14T12:39:12;17.52;;;9.50;;
71236;SDS011;58984;51.960;5.582;2023-12-14T12:41:38;15.00;;;9.73;;
71236;SDS011;58984;51.960;5.582;2023-12-14T12:44:04;19.50;;;11.18;;
71236;SDS011;58984;51.960;5.582;2023-12-14T12:46:36;19.65;;;12.25;;
71236;SDS011;58984;51.960;5.582;2023-12-14T12:49:03;20.95;;;15.10;;
71236;SDS011;58984;51.960;5.582;2023-12-14T12:51:30;29.33;;;16.45;;
71236;SDS011;58984;51.960;5.582;2023-12-14T12:53:59;20.98;;;14.07;;
71236;SDS011;58984;51.960;5.582;2023-12-14T12:56:26;24.42;;;13.98;;
71236;SDS011;58984;51.960;5.582;2023-12-14T12:58:53;22.90;;;12.63;;
71236;SDS011;58984;51.960;5.582;2023-12-14T13:01:21;19.35;;;12.05;;
71236;SDS011;58984;51.960;5.582;2023-12-14T13:06:17;18.83;;;11.50;;
71236;SDS011;58984;51.960;5.582;2023-12-14T13:08:43;15.27;;;10.45;;
71236;SDS011;58984;51.960;5.582;2023-12-14T13:11:09;20.63;;;11.90;;
71236;SDS011;58984;51.960;5.582;2023-12-14T13:13:34;16.30;;;11.68;;
71236;SDS011;58984;51.960;5.582;2023-12-14T13:16:00;21.63;;;11.25;;
71236;SDS011;58984;51.960;5.582;2023-12-14T13:18:25;18.10;;;11.00;;
71236;SDS011;58984;51.960;5.582;2023-12-14T13:20:51;18.95;;;11.90;;
71236;SDS011;58984;51.960;5.582;2023-12-14T13:23:17;19.45;;;11.25;;
71236;SDS011;58984;51.960;5.582;2023-12-14T13:25:42;20.00;;;11.50;;
71236;SDS011;58984;51.960;5.582;2023-12-14T13:28:10;15.00;;;10.27;;
71236;SDS011;58984;51.960;5.582;2023-12-14T13:30:35;20.17;;;12.10;;
71236;SDS011;58984;51.960;5.582;2023-12-14T13:33:01;16.50;;;10.63;;
71236;SDS011;58984;51.960;5.582;2023-12-14T13:35:28;17.33;;;10.68;;
71236;SDS011;58984;51.960;5.582;2023-12-14T13:37:54;18.95;;;11.27;;
71236;SDS011;58984;51.960;5.582;2023-12-14T13:40:20;14.75;;;10.02;;
71236;SDS011;58984;51.960;5.582;2023-12-14T13:42:46;16.58;;;9.90;;
71236;SDS011;58984;51.960;5.582;2023-12-14T13:45:12;16.10;;;9.77;;
71236;SDS011;58984;51.960;5.582;2023-12-14T13:47:38;17.60;;;10.50;;
71236;SDS011;58984;51.960;5.582;2023-12-14T13:50:04;16.63;;;10.50;;
71236;SDS011;58984;51.960;5.582;2023-12-14T13:52:30;19.15;;;10.95;;
71236;SDS011;58984;51.960;5.582;2023-12-14T13:54:55;14.35;;;9.55;;
71236;SDS011;58984;51.960;5.582;2023-12-14T13:57:24;15.45;;;10.85;;
71236;SDS011;58984;51.960;5.582;2023-12-14T13:59:50;14.77;;;9.65;;
71236;SDS011;58984;51.960;5.582;2023-12-14T14:02:15;14.77;;;9.75;;
71236;SDS011;58984;51.960;5.582;2023-12-14T14:04:41;15.15;;;10.20;;
71236;SDS011;58984;51.960;5.582;2023-12-14T14:07:07;19.80;;;10.38;;
71236;SDS011;58984;51.960;5.582;2023-12-14T14:09:42;16.92;;;10.18;;
71236;SDS011;58984;51.960;5.582;2023-12-14T14:12:07;16.67;;;9.48;;
71236;SDS011;58984;51.960;5.582;2023-12-14T14:14:33;19.05;;;11.10;;
71236;SDS011;58984;51.960;5.582;2023-12-14T14:16:59;16.88;;;11.95;;
71236;SDS011;58984;51.960;5.582;2023-12-14T14:19:24;17.77;;;11.35;;
71236;SDS011;58984;51.960;5.582;2023-12-14T14:21:50;18.85;;;10.27;;
71236;SDS011;58984;51.960;5.582;2023-12-14T14:24:16;18.23;;;10.32;;
71236;SDS011;58984;51.960;5.582;2023-12-14T14:26:41;14.30;;;10.40;;
71236;SDS011;58984;51.960;5.582;2023-12-14T14:29:07;15.80;;;10.43;;
71236;SDS011;58984;51.960;5.582;2023-12-14T14:31:36;16.40;;;10.05;;
71236;SDS011;58984;51.960;5.582;2023-12-14T14:34:01;15.70;;;9.77;;
71236;SDS011;58984;51.960;5.582;2023-12-14T14:36:27;15.35;;;9.57;;
71236;SDS011;58984;51.960;5.582;2023-12-14T14:38:53;16.25;;;9.65;;
71236;SDS011;58984;51.960;5.582;2023-12-14T14:41:20;16.95;;;10.25;;
71236;SDS011;58984;51.960;5.582;2023-12-14T14:43:45;13.00;;;9.57;;
71236;SDS011;58984;51.960;5.582;2023-12-14T14:46:12;13.90;;;9.40;;
71236;SDS011;58984;51.960;5.582;2023-12-14T14:48:37;14.18;;;9.60;;
71236;SDS011;58984;51.960;5.582;2023-12-14T14:51:04;14.90;;;9.48;;
71236;SDS011;58984;51.960;5.582;2023-12-14T14:53:29;15.85;;;9.82;;